Aviation Digital Data Service (ADDS)

Output produced by METARs form (1604 UTC 28 April 2017)
found at http://aviationweather.gov/adds/metars/
 
KSAN 281446Z 2815/2918 16006KT P6SM SCT017 SCT150 
     FM281800 30011KT P6SM SCT250 
     TEMPO 2822/2902 30015G25KT 
     FM290400 VRB04KT P6SM SCT250